Time;durP1;ratioP1;P1;durP2;ratioP2;P2;SDS_P1;SDS_P2;PMS_P1;PMS_P2;Temp;Humidity;BMP_temperature;BMP_pressure;BME280_temperature;BME280_humidity;BME280_pressure;Samples;Min_cycle;Max_cycle;Signal;HPM_P1;HPM_P2
2022/01/08 00:01:36;;;;;;;2.95;2.08;;;;;;;20.76;30.02;99524.81;5108584;28;20036;-61
2022/01/08 00:04:02;;;;;;;3.00;2.00;;;;;;;20.75;30.07;99514.88;5108562;28;20129;-60
2022/01/08 00:06:27;;;;;;;3.05;1.90;;;;;;;20.74;30.23;99514.09;5108269;28;20389;-60
2022/01/08 00:08:53;;;;;;;2.70;1.70;;;;;;;20.74;30.07;99516.88;5110015;28;20042;-60
2022/01/08 00:11:21;;;;;;;2.50;1.75;;;;;;;20.74;30.27;99516.06;5111524;28;20157;-60
2022/01/08 00:13:47;;;;;;;2.30;1.50;;;;;;;20.73;30.24;99503.34;5111855;28;20495;-60
2022/01/08 00:16:12;;;;;;;2.50;1.65;;;;;;;20.72;30.24;99508.09;5111423;28;20040;-60
2022/01/08 00:18:38;;;;;;;2.63;1.70;;;;;;;20.69;30.14;99497.72;5111094;28;20418;-60
2022/01/08 00:21:03;;;;;;;2.35;1.60;;;;;;;20.72;30.34;99491.44;5111310;28;20069;-60
2022/01/08 00:23:30;;;;;;;2.35;1.55;;;;;;;20.72;30.20;99498.97;5111380;28;20050;-60
2022/01/08 00:25:58;;;;;;;2.45;1.42;;;;;;;20.70;30.28;99490.97;5111373;28;20059;-60
2022/01/08 00:28:23;;;;;;;2.60;1.40;;;;;;;20.70;30.17;99495.72;5111313;28;20047;-61
2022/01/08 00:30:50;;;;;;;2.20;1.30;;;;;;;20.71;30.41;99492.56;5110655;28;20141;-60
2022/01/08 00:33:15;;;;;;;1.85;1.20;;;;;;;20.70;30.47;99485.41;5111408;28;20048;-60
2022/01/08 00:35:41;;;;;;;2.03;1.25;;;;;;;20.69;30.22;99485.78;5111246;28;20451;-60
2022/01/08 00:38:06;;;;;;;2.20;1.20;;;;;;;20.70;30.57;99476.28;5111423;28;20061;-60
2022/01/08 00:40:33;;;;;;;2.00;1.20;;;;;;;20.69;30.42;99472.69;5111203;28;20043;-60
2022/01/08 00:42:58;;;;;;;1.88;1.15;;;;;;;20.69;30.30;99472.69;5111286;28;20465;-60
2022/01/08 00:45:24;;;;;;;2.28;1.20;;;;;;;20.69;30.48;99472.69;5111485;28;20513;-60
2022/01/08 00:47:49;;;;;;;1.90;1.30;;;;;;;20.69;30.14;99460.78;5111203;28;20054;-54
2022/01/08 00:50:15;;;;;;;1.98;1.30;;;;;;;20.67;30.31;99463.94;5111055;28;20044;-54
2022/01/08 00:52:42;;;;;;;1.95;1.20;;;;;;;20.68;30.33;99464.75;5110951;28;20043;-55
2022/01/08 00:55:09;;;;;;;1.63;1.08;;;;;;;20.68;30.33;99456.41;5111059;28;20443;-56
2022/01/08 00:57:34;;;;;;;1.50;1.10;;;;;;;20.67;30.62;99455.59;5110835;28;20039;-54
2022/01/08 01:00:00;;;;;;;2.22;1.33;;;;;;;20.66;30.36;99450.41;5110550;28;20047;-54
2022/01/08 01:02:26;;;;;;;2.00;1.23;;;;;;;20.66;30.33;99448.44;5110947;28;20048;-54
2022/01/08 01:04:51;;;;;;;1.75;1.00;;;;;;;20.67;30.48;99454.81;5110698;28;20050;-53
2022/01/08 01:07:17;;;;;;;1.55;1.02;;;;;;;20.66;30.50;99455.97;5110876;28;20416;-53
2022/01/08 01:09:42;;;;;;;1.50;1.10;;;;;;;20.65;30.48;99448.81;5110511;28;20074;-54
2022/01/08 01:12:08;;;;;;;1.50;0.90;;;;;;;20.66;30.52;99459.56;5110340;28;20084;-53
2022/01/08 01:14:34;;;;;;;1.70;1.00;;;;;;;20.65;30.58;99455.19;5109490;28;20411;-54
2022/01/08 01:16:59;;;;;;;1.65;1.05;;;;;;;20.63;30.47;99443.63;5110576;28;20126;-60
2022/01/08 01:19:24;;;;;;;1.63;1.02;;;;;;;20.65;30.45;99449.63;5110259;28;20044;-60
2022/01/08 01:21:52;;;;;;;1.88;1.10;;;;;;;20.66;30.78;99450.41;5109849;28;20423;-55
2022/01/08 01:24:21;;;;;;;1.63;1.00;;;;;;;20.65;30.76;99440.47;5110548;28;20495;-61
2022/01/08 01:29:50;;;;;;;1.63;1.00;;;;;;;20.65;30.59;99435.72;5078529;28;20055;-61
2022/01/08 01:48:25;;;;;;;1.20;0.90;;;;;;;21.01;30.18;99427.91;5110240;28;20054;-60
2022/01/08 01:50:52;;;;;;;1.33;0.85;;;;;;;20.96;30.25;99439.34;5109593;28;20470;-61
2022/01/08 01:53:17;;;;;;;1.38;0.90;;;;;;;20.90;30.49;99422.19;5110073;28;20052;-53
2022/01/08 01:55:44;;;;;;;1.50;1.00;;;;;;;20.89;30.36;99426.16;5110051;28;20542;-53
2022/01/08 01:58:10;;;;;;;1.20;0.80;;;;;;;20.86;30.39;99424.13;5110038;28;20032;-54
2022/01/08 02:00:36;;;;;;;1.40;0.80;;;;;;;20.85;30.49;99428.06;5109753;28;20100;-54
2022/01/08 02:03:02;;;;;;;1.20;0.90;;;;;;;20.83;30.43;99420.09;5110044;28;20047;-54
2022/01/08 02:05:28;;;;;;;0.93;0.63;;;;;;;20.81;30.53;99418.88;5109753;28;20044;-54
2022/01/08 02:07:57;;;;;;;1.63;0.82;;;;;;;20.79;30.68;99419.28;5109819;28;20344;-55
2022/01/08 02:10:23;;;;;;;1.50;0.93;;;;;;;20.79;30.67;99427.59;5109444;28;20047;-54
2022/01/08 02:12:49;;;;;;;0.90;0.68;;;;;;;20.77;30.74;99415.25;5109772;28;20028;-54
2022/01/08 02:15:14;;;;;;;1.10;0.73;;;;;;;20.76;30.74;99424.75;5109767;28;20085;-61
2022/01/08 02:17:40;;;;;;;1.42;0.88;;;;;;;20.77;30.73;99418.03;5109600;28;20052;-60
2022/01/08 02:20:06;;;;;;;1.75;1.00;;;;;;;20.73;30.64;99403.28;5109612;28;20036;-61
2022/01/08 02:22:31;;;;;;;1.45;0.85;;;;;;;20.74;30.66;99421.56;5109850;28;20042;-53
2022/01/08 02:24:57;;;;;;;1.42;0.80;;;;;;;20.73;30.69;99443.00;5109553;28;20043;-54
2022/01/08 02:27:22;;;;;;;0.90;0.70;;;;;;;20.73;30.70;99431.88;5109223;28;20039;-53
2022/01/08 02:29:49;;;;;;;1.23;0.90;;;;;;;20.72;30.82;99388.59;5109383;28;20507;-54
2022/01/08 02:32:18;;;;;;;1.10;0.70;;;;;;;20.68;30.96;99379.38;5108091;28;20043;-54
2022/01/08 02:34:45;;;;;;;1.15;0.80;;;;;;;20.70;30.86;99418.72;5109316;28;20108;-53
2022/01/08 02:37:12;;;;;;;1.23;0.80;;;;;;;20.69;30.89;99428.22;5109602;28;20138;-54
2022/01/08 02:39:40;;;;;;;1.73;0.98;;;;;;;20.69;31.05;99422.66;5109706;28;20043;-54
2022/01/08 02:42:08;;;;;;;1.33;0.80;;;;;;;20.69;30.98;99424.66;5109516;28;20078;-54
2022/01/08 02:44:34;;;;;;;1.27;0.80;;;;;;;20.70;30.79;99417.91;5109366;28;20515;-53
2022/01/08 02:47:00;;;;;;;1.23;0.70;;;;;;;20.69;31.05;99407.97;5109451;28;20086;-53
2022/01/08 02:49:27;;;;;;;1.10;0.70;;;;;;;20.68;31.05;99421.06;5091093;28;20415;-54
2022/01/08 02:51:53;;;;;;;0.95;0.70;;;;;;;20.69;31.09;99424.66;5108917;28;20043;-54
2022/01/08 02:54:18;;;;;;;0.77;0.60;;;;;;;20.67;30.95;99391.69;5109168;28;20096;-54
2022/01/08 02:56:46;;;;;;;0.80;0.60;;;;;;;20.67;31.00;99369.44;5109152;28;20067;-54
2022/01/08 02:59:13;;;;;;;0.68;0.50;;;;;;;20.67;30.86;99391.69;5108961;28;20130;-54
2022/01/08 03:01:39;;;;;;;0.82;0.57;;;;;;;20.66;30.93;99409.53;5108995;28;20043;-54
2022/01/08 03:04:05;;;;;;;0.85;0.50;;;;;;;20.66;31.10;99409.53;5109274;28;20395;-55
2022/01/08 03:06:31;;;;;;;1.15;0.70;;;;;;;20.66;31.08;99403.19;5109189;28;20040;-54
2022/01/08 03:08:56;;;;;;;0.85;0.50;;;;;;;20.66;30.93;99392.84;5109383;28;20534;-54
2022/01/08 03:11:22;;;;;;;0.80;0.60;;;;;;;20.66;30.97;99389.28;5108575;28;20044;-55
2022/01/08 03:13:47;;;;;;;0.85;0.55;;;;;;;20.65;31.08;99394.03;5109366;28;20065;-61
2022/01/08 03:16:13;;;;;;;0.60;0.40;;;;;;;20.66;31.00;99386.50;5108774;28;20047;-60
2022/01/08 03:18:39;;;;;;;1.05;0.60;;;;;;;20.64;30.96;99384.06;5108925;28;20043;-60
2022/01/08 03:21:16;;;;;;;1.63;0.90;;;;;;;20.63;31.06;99379.69;5108280;28;20094;-60
2022/01/08 03:24:07;;;;;;;1.10;0.70;;;;;;;20.63;31.07;99374.13;5108930;28;20048;-54
2022/01/08 03:26:29;;;;;;;1.05;0.65;;;;;;;20.63;31.32;99376.91;5107924;28;20059;-56
2022/01/08 03:28:56;;;;;;;1.00;0.60;;;;;;;20.63;31.33;99365.00;5108643;28;20134;-55
2022/01/08 03:31:24;;;;;;;0.93;0.60;;;;;;;20.63;31.32;99354.69;5108012;28;20534;-53
2022/01/08 03:33:51;;;;;;;0.90;0.60;;;;;;;20.63;30.99;99353.88;5108674;28;20075;-54
2022/01/08 03:36:18;;;;;;;1.35;0.60;;;;;;;20.63;31.06;99354.69;5108449;28;20044;-54
2022/01/08 03:38:44;;;;;;;0.95;0.60;;;;;;;20.64;31.26;99358.25;5108573;28;20457;-54
2022/01/08 03:41:10;;;;;;;0.80;0.50;;;;;;;20.62;31.12;99353.09;5108174;28;20039;-54
2022/01/08 03:43:35;;;;;;;0.63;0.47;;;;;;;20.63;31.09;99353.88;5109654;28;20047;-54
2022/01/08 03:46:03;;;;;;;0.70;0.50;;;;;;;20.61;31.13;99351.47;5112250;28;20047;-55
2022/01/08 03:48:32;;;;;;;0.80;0.50;;;;;;;20.62;31.05;99358.63;5112087;28;20117;-54
2022/01/08 03:50:58;;;;;;;0.90;0.55;;;;;;;20.62;31.18;99364.19;5111867;28;20092;-54
2022/01/08 03:53:25;;;;;;;1.27;0.65;;;;;;;20.62;31.34;99350.31;5111776;28;20126;-55
2022/01/08 03:55:51;;;;;;;0.77;0.60;;;;;;;20.60;31.30;99347.09;5111887;28;20048;-54
2022/01/08 03:58:16;;;;;;;1.08;0.60;;;;;;;20.60;31.37;99361.00;5111980;28;20131;-60
2022/01/08 04:00:42;;;;;;;0.57;0.40;;;;;;;20.61;31.35;99362.59;5111619;28;20134;-60
2022/01/08 04:03:08;;;;;;;0.95;0.63;;;;;;;20.62;31.25;99358.63;5112034;28;20052;-61
2022/01/08 04:05:34;;;;;;;0.85;0.50;;;;;;;20.62;31.28;99353.09;5111803;28;20046;-60
2022/01/08 04:07:59;;;;;;;0.73;0.50;;;;;;;20.61;31.22;99359.81;5112001;28;20051;-60
2022/01/08 04:10:24;;;;;;;0.40;0.30;;;;;;;20.62;31.33;99361.41;5111660;28;20513;-60
2022/01/08 04:12:55;;;;;;;0.52;0.40;;;;;;;20.61;31.50;99363.41;5111156;28;20044;-54
2022/01/08 04:17:51;;;;;;;0.47;0.40;;;;;;;20.60;31.27;99366.56;5111633;28;20043;-54
2022/01/08 04:20:17;;;;;;;0.43;0.30;;;;;;;20.60;31.52;99358.22;5111526;28;20431;-53
2022/01/08 04:22:45;;;;;;;0.43;0.35;;;;;;;20.60;31.42;99352.66;5111515;28;20051;-60
2022/01/08 04:25:11;;;;;;;0.47;0.40;;;;;;;20.61;31.52;99362.59;5111416;28;20411;-60
2022/01/08 04:27:37;;;;;;;0.57;0.35;;;;;;;20.60;31.54;99356.25;5111453;28;20511;-61
2022/01/08 04:30:04;;;;;;;0.70;0.50;;;;;;;20.59;31.55;99346.31;5111404;28;20050;-61
2022/01/08 04:32:29;;;;;;;0.85;0.55;;;;;;;20.60;31.49;99363.78;5110901;28;20111;-60
2022/01/08 04:34:54;;;;;;;0.73;0.52;;;;;;;20.60;31.36;99333.22;5111203;28;20448;-60
2022/01/08 04:37:20;;;;;;;0.90;0.55;;;;;;;20.60;31.22;99344.34;5111434;28;20054;-60
2022/01/08 04:39:45;;;;;;;0.82;0.57;;;;;;;20.59;31.56;99351.88;5111206;28;20055;-60
2022/01/08 04:42:11;;;;;;;0.50;0.50;;;;;;;20.59;31.29;99328.84;5111300;28;20046;-61
2022/01/08 04:44:36;;;;;;;0.98;0.70;;;;;;;20.59;31.32;99328.84;5111249;28;20047;-61
2022/01/08 04:47:02;;;;;;;0.90;0.60;;;;;;;20.56;31.25;99332.34;5111206;28;20457;-60
2022/01/08 04:49:28;;;;;;;1.20;0.70;;;;;;;20.59;31.30;99353.84;5110883;28;20389;-60
2022/01/08 04:51:54;;;;;;;1.88;0.80;;;;;;;20.59;31.56;99360.19;5110271;28;20040;-61
2022/01/08 04:54:20;;;;;;;1.38;0.82;;;;;;;20.58;31.35;99353.03;5110701;28;20047;-61
2022/01/08 04:56:46;;;;;;;1.20;0.60;;;;;;;20.59;31.50;99351.06;5110325;28;20374;-60
2022/01/08 04:59:11;;;;;;;1.38;0.75;;;;;;;20.59;31.36;99351.06;5110865;28;20204;-60
2022/01/08 05:01:37;;;;;;;0.77;0.57;;;;;;;20.58;31.45;99355.81;5110784;28;20124;-60
2022/01/08 05:04:02;;;;;;;0.93;0.70;;;;;;;20.58;31.28;99368.91;5110775;28;20047;-60
2022/01/08 05:06:28;;;;;;;1.15;0.70;;;;;;;20.58;31.44;99375.28;5110726;28;20035;-60
2022/01/08 05:08:53;;;;;;;0.98;0.60;;;;;;;20.57;31.54;99368.13;5110717;28;20449;-60
2022/01/08 05:11:19;;;;;;;0.88;0.60;;;;;;;20.58;31.44;99389.16;5110146;28;20070;-60
2022/01/08 05:13:45;;;;;;;1.35;0.73;;;;;;;20.58;31.41;99399.50;5110525;28;20043;-61
2022/01/08 05:16:11;;;;;;;0.90;0.57;;;;;;;20.58;31.47;99407.81;5110455;28;20086;-60
2022/01/08 05:18:37;;;;;;;1.05;0.60;;;;;;;20.58;31.24;99421.72;5110571;28;20112;-60
2022/01/08 05:21:22;;;;;;;1.23;0.70;;;;;;;20.57;31.30;99423.69;5110428;28;20085;-60
2022/01/08 05:23:47;;;;;;;0.65;0.50;;;;;;;20.57;31.30;99439.53;5110369;28;20055;-60
2022/01/08 05:26:13;;;;;;;1.00;0.70;;;;;;;20.57;31.51;99453.44;5110518;28;20036;-60
2022/01/08 05:28:38;;;;;;;1.40;0.88;;;;;;;20.55;31.42;99458.56;5110186;28;20047;-61
2022/01/08 05:31:04;;;;;;;1.33;0.80;;;;;;;20.57;31.24;99461.78;5109977;28;20052;-61
2022/01/08 05:33:29;;;;;;;1.05;0.70;;;;;;;20.58;31.26;99468.97;5107737;28;20114;-60
2022/01/08 05:35:55;;;;;;;0.80;0.63;;;;;;;20.57;31.37;99478.44;5110208;28;20051;-60
2022/01/08 05:38:21;;;;;;;1.20;0.70;;;;;;;20.57;31.26;99482.06;5110751;28;20487;-53
2022/01/08 05:40:46;;;;;;;1.15;0.70;;;;;;;20.56;31.30;99487.97;5110363;28;20069;-54
2022/01/08 05:43:12;;;;;;;0.75;0.60;;;;;;;20.56;31.46;99496.28;5110344;28;20093;-53
2022/01/08 05:45:37;;;;;;;0.90;0.60;;;;;;;20.57;31.23;99497.91;5110257;28;20054;-54
2022/01/08 05:48:04;;;;;;;0.80;0.70;;;;;;;20.55;31.56;99491.91;5110610;28;20055;-54
2022/01/08 05:50:29;;;;;;;1.10;0.77;;;;;;;20.55;31.45;99498.28;5110370;28;20043;-53
2022/01/08 05:52:54;;;;;;;1.00;0.70;;;;;;;20.53;31.21;99495.06;5110130;28;20051;-54
2022/01/08 05:55:20;;;;;;;0.60;0.52;;;;;;;20.55;31.30;99497.47;5110376;28;20497;-55
2022/01/08 05:57:45;;;;;;;1.45;0.80;;;;;;;20.54;31.31;99504.22;5110645;28;20043;-54
2022/01/08 06:00:11;;;;;;;0.82;0.63;;;;;;;20.53;31.28;99497.84;5110322;28;20051;-54
2022/01/08 06:02:37;;;;;;;0.93;0.68;;;;;;;20.55;31.36;99508.59;5110347;28;20043;-52
2022/01/08 06:05:05;;;;;;;1.13;0.65;;;;;;;20.54;31.42;99523.66;5110326;28;20057;-54
2022/01/08 06:07:30;;;;;;;1.10;0.60;;;;;;;20.55;31.19;99514.16;5109859;28;20122;-54
2022/01/08 06:09:56;;;;;;;0.57;0.47;;;;;;;20.53;31.15;99513.72;5110169;28;20139;-54
2022/01/08 06:12:21;;;;;;;0.82;0.50;;;;;;;20.53;31.37;99510.94;5109596;28;20047;-53
2022/01/08 06:14:46;;;;;;;1.17;0.75;;;;;;;20.53;31.24;99502.59;5110073;28;20086;-60
2022/01/08 06:17:12;;;;;;;0.45;0.40;;;;;;;20.51;31.31;99511.31;5110016;28;20050;-60
2022/01/08 06:19:38;;;;;;;0.85;0.52;;;;;;;20.53;31.37;99510.94;5108930;28;20048;-61
2022/01/08 06:22:03;;;;;;;0.90;0.60;;;;;;;20.52;31.23;99526.00;5109528;28;20134;-60
2022/01/08 06:24:29;;;;;;;0.50;0.50;;;;;;;20.53;31.38;99533.16;5109658;28;20070;-60
2022/01/08 06:26:55;;;;;;;0.82;0.60;;;;;;;20.53;31.34;99527.63;5109546;28;20109;-60
2022/01/08 06:29:20;;;;;;;0.55;0.55;;;;;;;20.53;31.31;99522.84;5109600;28;20483;-60
2022/01/08 06:31:46;;;;;;;0.50;0.40;;;;;;;20.53;31.37;99527.63;5109269;28;20036;-60
2022/01/08 06:34:11;;;;;;;0.90;0.57;;;;;;;20.52;31.25;99535.16;5109652;28;20058;-60
2022/01/08 06:36:36;;;;;;;0.90;0.52;;;;;;;20.54;31.25;99526.44;5109616;28;20047;-60
2022/01/08 06:39:02;;;;;;;0.77;0.60;;;;;;;20.52;31.48;99521.25;5109688;28;20044;-62
2022/01/08 06:41:29;;;;;;;1.20;0.60;;;;;;;20.51;31.30;99527.19;5109430;28;20039;-60
2022/01/08 06:43:57;;;;;;;0.70;0.50;;;;;;;20.52;31.43;99531.56;5109424;28;20052;-61
2022/01/08 06:46:23;;;;;;;0.90;0.55;;;;;;;20.50;31.45;99543.06;5109342;28;20039;-61
2022/01/08 06:48:49;;;;;;;0.43;0.40;;;;;;;20.51;31.34;99535.53;5109505;28;20046;-60
2022/01/08 06:51:14;;;;;;;0.63;0.40;;;;;;;20.52;31.48;99546.25;5109315;28;20043;-60
2022/01/08 06:53:39;;;;;;;0.63;0.40;;;;;;;20.52;31.25;99545.47;5109481;28;20044;-60
2022/01/08 06:56:05;;;;;;;0.75;0.50;;;;;;;20.51;31.48;99541.88;5109284;28;20090;-60
2022/01/08 06:58:31;;;;;;;0.70;0.50;;;;;;;20.51;31.53;99536.31;5109684;28;20118;-60
2022/01/08 07:00:57;;;;;;;0.68;0.43;;;;;;;20.51;31.44;99528.00;5109323;28;20047;-60
2022/01/08 07:03:22;;;;;;;0.50;0.40;;;;;;;20.51;31.40;99521.63;5105248;28;20376;-61
2022/01/08 07:05:48;;;;;;;0.80;0.50;;;;;;;20.51;31.50;99516.88;5109337;28;20043;-60
2022/01/08 07:08:14;;;;;;;0.50;0.40;;;;;;;20.51;31.26;99514.09;5108968;28;20066;-60
2022/01/08 07:10:39;;;;;;;0.40;0.40;;;;;;;20.50;31.39;99525.56;5108415;28;20050;-61
2022/01/08 07:13:05;;;;;;;0.75;0.50;;;;;;;20.50;31.43;99531.13;5107730;28;20119;-61
2022/01/08 07:15:30;;;;;;;0.88;0.52;;;;;;;20.51;31.35;99535.53;5108447;28;20482;-60
2022/01/08 07:17:56;;;;;;;0.63;0.40;;;;;;;20.51;31.26;99541.88;5108151;28;20126;-61
2022/01/08 07:20:21;;;;;;;0.63;0.43;;;;;;;20.49;31.37;99535.88;5108544;28;20044;-60
2022/01/08 07:22:48;;;;;;;0.57;0.43;;;;;;;20.51;31.33;99541.88;5108510;28;20043;-60
2022/01/08 07:25:14;;;;;;;0.80;0.50;;;;;;;20.50;31.60;99562.50;5108542;28;20092;-60
2022/01/08 07:27:40;;;;;;;0.40;0.35;;;;;;;20.51;31.30;99552.19;5108683;28;20134;-60
2022/01/08 07:30:08;;;;;;;0.80;0.52;;;;;;;20.51;31.42;99552.19;5108542;28;20072;-60
2022/01/08 07:32:49;;;;;;;0.88;0.65;;;;;;;20.48;31.45;99550.13;5108105;28;20040;-60
2022/01/08 07:35:16;;;;;;;0.68;0.50;;;;;;;20.50;31.47;99548.63;5108748;28;20055;-61
2022/01/08 07:37:43;;;;;;;0.80;0.60;;;;;;;20.49;31.27;99552.53;5108701;28;20470;-60
2022/01/08 07:40:10;;;;;;;0.82;0.60;;;;;;;20.47;31.39;99554.09;5108356;28;20074;-61
2022/01/08 07:42:35;;;;;;;0.93;0.60;;;;;;;20.49;31.37;99562.84;5108416;28;20044;-60
2022/01/08 07:45:01;;;;;;;0.40;0.40;;;;;;;20.49;31.41;99558.09;5108553;28;20044;-60
2022/01/08 07:47:26;;;;;;;0.73;0.50;;;;;;;20.49;31.45;99551.75;5107826;28;20079;-60
2022/01/08 07:49:52;;;;;;;0.93;0.63;;;;;;;20.50;31.43;99545.84;5108336;28;20035;-60
2022/01/08 07:52:17;;;;;;;0.90;0.60;;;;;;;20.49;31.69;99543.41;5108071;28;20081;-60
2022/01/08 07:54:43;;;;;;;1.27;0.70;;;;;;;20.49;31.55;99554.53;5108215;28;20080;-60
2022/01/08 07:57:08;;;;;;;1.15;0.73;;;;;;;20.48;31.68;99569.59;5108006;28;20040;-60
2022/01/08 07:59:34;;;;;;;0.80;0.60;;;;;;;20.49;31.71;99568.41;5108306;28;20086;-61
2022/01/08 08:01:59;;;;;;;0.88;0.57;;;;;;;20.49;31.45;99571.19;5108104;28;20460;-53
2022/01/08 08:04:25;;;;;;;1.08;0.70;;;;;;;20.49;31.74;99571.19;5107995;28;20055;-54
2022/01/08 08:06:51;;;;;;;0.85;0.50;;;;;;;20.48;31.54;99578.72;5108002;28;20047;-54
2022/01/08 08:09:16;;;;;;;1.75;0.90;;;;;;;20.49;31.49;99594.22;5108032;28;20048;-54
2022/01/08 08:11:42;;;;;;;1.15;0.70;;;;;;;20.48;31.60;99597.38;5107067;28;20048;-54
2022/01/08 08:14:08;;;;;;;0.80;0.60;;;;;;;20.46;31.63;99602.50;5108184;28;20040;-53
2022/01/08 08:16:33;;;;;;;0.68;0.50;;;;;;;20.48;31.60;99608.50;5108342;28;20043;-54
2022/01/08 08:18:59;;;;;;;1.27;0.88;;;;;;;20.48;31.61;99608.50;5108153;28;20040;-54
2022/01/08 08:21:24;;;;;;;1.13;0.60;;;;;;;20.47;31.68;99609.66;5108218;28;20043;-54
2022/01/08 08:23:50;;;;;;;1.17;0.70;;;;;;;20.47;31.69;99607.69;5108581;28;20047;-55
2022/01/08 08:26:15;;;;;;;1.23;0.70;;;;;;;20.48;31.75;99614.84;5108405;28;20150;-54
2022/01/08 08:28:41;;;;;;;1.38;0.90;;;;;;;20.48;31.58;99614.03;5108710;28;20497;-54
2022/01/08 08:31:07;;;;;;;1.08;0.70;;;;;;;20.47;31.67;99618.81;5110481;28;20047;-55
2022/01/08 08:33:33;;;;;;;1.30;0.70;;;;;;;20.45;31.96;99621.16;5111847;28;20043;-54
2022/01/08 08:35:58;;;;;;;1.33;0.70;;;;;;;20.49;31.75;99621.22;5111794;28;20054;-54
2022/01/08 08:38:26;;;;;;;0.95;0.70;;;;;;;20.48;31.61;99622.38;5111815;28;20043;-55
2022/01/08 08:40:52;;;;;;;0.85;0.60;;;;;;;20.49;31.79;99635.09;5111611;28;20163;-55
2022/01/08 08:43:19;;;;;;;0.93;0.63;;;;;;;20.48;31.81;99648.19;5111614;28;20403;-54
2022/01/08 08:45:45;;;;;;;0.60;0.50;;;;;;;20.48;31.76;99653.75;5111670;28;20122;-54
2022/01/08 08:48:11;;;;;;;0.70;0.57;;;;;;;20.49;31.76;99654.56;5111489;28;20153;-54
2022/01/08 08:50:36;;;;;;;1.17;0.77;;;;;;;20.50;31.81;99645.03;5111442;28;20104;-55
2022/01/08 08:53:01;;;;;;;0.73;0.63;;;;;;;20.47;31.79;99632.69;5111165;28;20395;-54
2022/01/08 08:55:27;;;;;;;0.60;0.50;;;;;;;20.46;31.73;99633.06;5111339;28;20039;-52
2022/01/08 08:57:52;;;;;;;1.25;0.60;;;;;;;20.49;31.71;99649.00;5111534;28;20049;-54
2022/01/08 09:00:19;;;;;;;0.70;0.60;;;;;;;20.49;31.86;99640.66;5111323;28;20040;-54
2022/01/08 09:02:44;;;;;;;1.25;0.73;;;;;;;20.46;31.77;99633.06;5111330;28;20043;-54
2022/01/08 09:05:10;;;;;;;1.05;0.80;;;;;;;20.48;31.85;99634.31;5111346;28;20252;-54
2022/01/08 09:07:35;;;;;;;1.08;0.70;;;;;;;20.50;31.98;99639.47;5111187;28;20457;-54
2022/01/08 09:10:03;;;;;;;0.73;0.60;;;;;;;20.49;31.95;99643.44;5110993;28;20046;-53
2022/01/08 09:12:29;;;;;;;0.95;0.60;;;;;;;20.49;31.92;99638.69;5110203;28;20074;-60
2022/01/08 09:14:54;;;;;;;0.90;0.70;;;;;;;20.49;31.94;99649.78;5110737;28;20126;-60
2022/01/08 09:17:21;;;;;;;1.00;0.60;;;;;;;20.45;31.90;99650.91;5110715;28;20414;-60
2022/01/08 09:19:47;;;;;;;1.08;0.60;;;;;;;20.48;31.95;99667.63;5110676;28;20043;-60
2022/01/08 09:22:13;;;;;;;1.00;0.70;;;;;;;20.48;31.86;99664.88;5110372;28;20052;-60
2022/01/08 09:24:40;;;;;;;0.93;0.60;;;;;;;20.47;31.84;99668.81;5110550;28;20082;-61
2022/01/08 09:27:05;;;;;;;0.60;0.60;;;;;;;20.49;31.76;99666.47;5110692;28;20112;-60
2022/01/08 09:29:30;;;;;;;1.00;0.60;;;;;;;20.50;31.82;99676.44;5110973;28;20039;-60
2022/01/08 09:31:56;;;;;;;0.93;0.70;;;;;;;20.49;31.86;99676.78;5110499;28;20085;-60
2022/01/08 09:34:22;;;;;;;1.05;0.70;;;;;;;20.47;31.96;99679.13;5110370;28;20051;-60
2022/01/08 09:36:48;;;;;;;0.85;0.52;;;;;;;20.48;32.01;99681.53;5110342;28;20062;-60
2022/01/08 09:39:14;;;;;;;1.40;0.80;;;;;;;20.48;32.01;99681.53;5110434;28;20411;-60
2022/01/08 09:41:40;;;;;;;0.80;0.60;;;;;;;20.48;31.98;99689.06;5109484;28;20448;-61
2022/01/08 09:44:06;;;;;;;1.63;0.90;;;;;;;20.48;31.97;99692.66;5109864;28;20040;-60
2022/01/08 09:46:32;;;;;;;1.10;0.70;;;;;;;20.49;31.94;99699.00;5110034;28;20043;-60
2022/01/08 09:48:57;;;;;;;0.95;0.60;;;;;;;20.47;32.03;99702.16;5110179;28;20040;-60
2022/01/08 09:51:23;;;;;;;1.00;0.70;;;;;;;20.49;32.07;99699.00;5109523;28;20137;-60
2022/01/08 09:53:48;;;;;;;1.17;0.75;;;;;;;20.48;31.98;99697.41;5109796;28;20082;-60
2022/01/08 09:56:14;;;;;;;1.50;0.80;;;;;;;20.47;32.00;99704.94;5109578;28;20088;-60
2022/01/08 09:58:39;;;;;;;1.35;0.82;;;;;;;20.48;32.13;99695.44;5109806;28;20491;-60
2022/01/08 10:01:30;;;;;;;1.20;0.80;;;;;;;20.48;32.15;99692.66;5109894;28;20081;-60
2022/01/08 10:03:58;;;;;;;0.60;0.50;;;;;;;20.48;32.27;99675.19;5110378;28;20055;-61
2022/01/08 10:06:26;;;;;;;1.10;0.70;;;;;;;20.46;32.05;99671.97;5109947;28;20054;-54
2022/01/08 10:08:51;;;;;;;1.30;0.90;;;;;;;20.48;32.20;99670.41;5109867;28;20040;-54
2022/01/08 10:11:18;;;;;;;2.63;0.90;;;;;;;20.48;32.43;99664.88;5109649;28;20039;-54
2022/01/08 10:13:46;;;;;;;1.33;0.80;;;;;;;20.46;32.39;99672.78;5109550;28;20040;-54
2022/01/08 10:18:59;;;;;;;1.00;0.80;;;;;;;20.48;32.29;99666.84;5109688;28;20472;-54
2022/01/08 10:21:34;;;;;;;1.13;0.75;;;;;;;20.47;32.54;99662.47;5109470;28;20044;-54
2022/01/08 10:24:04;;;;;;;1.27;0.80;;;;;;;20.48;32.49;99658.50;5109488;28;20062;-54
2022/01/08 10:26:34;;;;;;;1.23;0.80;;;;;;;20.49;32.46;99660.09;5109335;28;20062;-54
2022/01/08 10:29:04;;;;;;;1.55;0.90;;;;;;;20.48;32.37;99656.53;5109310;28;20055;-54
2022/01/08 10:31:38;;;;;;;1.05;0.80;;;;;;;20.49;32.40;99649.00;5109234;28;20512;-54
2022/01/08 10:34:08;;;;;;;1.40;1.00;;;;;;;20.49;32.55;99643.44;5109256;28;20050;-54
2022/01/08 10:36:46;;;;;;;1.73;1.00;;;;;;;20.48;32.34;99645.41;5109227;28;20093;-53
2022/01/08 10:39:19;;;;;;;1.38;0.88;;;;;;;20.47;32.34;99651.34;5109273;28;20047;-53
2022/01/08 10:41:46;;;;;;;1.52;0.93;;;;;;;20.49;32.56;99643.44;5109079;28;20086;-55
2022/01/08 10:44:19;;;;;;;1.35;0.90;;;;;;;20.49;32.56;99643.44;5109366;28;20400;-54
2022/01/08 10:46:56;;;;;;;1.40;0.80;;;;;;;20.49;32.68;99629.53;5109196;28;20079;-54
2022/01/08 10:49:34;;;;;;;2.40;1.30;;;;;;;20.48;32.62;99630.72;5109339;28;20072;-54
2022/01/08 10:52:03;;;;;;;1.55;1.05;;;;;;;20.49;32.50;99624.00;5108951;28;20052;-54
2022/01/08 10:54:30;;;;;;;1.77;1.20;;;;;;;20.48;32.71;99612.06;5108296;28;20048;-55
2022/01/08 10:57:00;;;;;;;1.90;1.20;;;;;;;20.48;32.73;99609.28;5109223;28;20058;-54
2022/01/08 10:59:26;;;;;;;1.92;1.20;;;;;;;20.48;32.53;99603.72;5106198;28;20043;-54
2022/01/08 11:01:58;;;;;;;1.88;1.30;;;;;;;20.46;32.50;99583.84;5109063;28;20043;-54
2022/01/08 11:04:45;;;;;;;1.65;1.05;;;;;;;20.48;32.73;99575.16;5109084;28;20086;-54
2022/01/08 11:07:26;;;;;;;1.95;1.10;;;;;;;20.49;32.59;99565.63;5105894;28;20102;-54
2022/01/08 11:10:02;;;;;;;1.50;1.08;;;;;;;20.50;32.65;99553.34;5109175;28;20039;-53
2022/01/08 11:12:34;;;;;;;1.70;1.00;;;;;;;20.52;32.61;99537.13;5108464;28;20075;-60
2022/01/08 11:17:49;;;;;;;1.80;1.10;;;;;;;20.54;32.70;99527.25;5109089;28;20054;-60
2022/01/08 11:20:28;;;;;;;1.77;1.13;;;;;;;20.55;32.82;99519.69;5108800;28;20061;-54
2022/01/08 11:23:00;;;;;;;1.75;1.08;;;;;;;20.52;32.72;99498.22;5108712;28;20055;-54
2022/01/08 11:25:33;;;;;;;1.88;1.15;;;;;;;20.55;32.73;99492.72;5108832;28;20058;-54
2022/01/08 11:28:10;;;;;;;2.03;1.20;;;;;;;20.55;32.79;99487.16;5108740;28;20132;-53
2022/01/08 11:30:37;;;;;;;1.52;1.00;;;;;;;20.56;32.60;99483.19;5108701;28;20789;-53
2022/01/08 11:33:18;;;;;;;1.83;1.08;;;;;;;20.56;32.67;99463.75;5108085;28;20101;-54
2022/01/08 11:35:45;;;;;;;2.00;1.40;;;;;;;20.58;32.82;99463.41;5108414;28;20512;-54
2022/01/08 11:38:12;;;;;;;1.45;1.00;;;;;;;20.58;32.82;99461.41;5108360;28;20543;-54
2022/01/08 11:40:41;;;;;;;2.08;1.30;;;;;;;20.58;32.75;99446.72;5108225;28;20047;-54
2022/01/08 11:43:09;;;;;;;1.60;1.10;;;;;;;20.59;32.70;99440.00;5108329;28;20050;-54
2022/01/08 11:45:43;;;;;;;1.80;1.10;;;;;;;20.58;32.68;99430.06;5108376;28;20052;-54
2022/01/08 11:48:10;;;;;;;1.77;1.17;;;;;;;20.58;32.78;99424.50;5108304;28;20051;-60
2022/01/08 11:50:36;;;;;;;1.45;1.00;;;;;;;20.59;32.82;99420.53;5108307;28;20475;-60
2022/01/08 11:53:23;;;;;;;1.63;1.02;;;;;;;20.59;32.76;99417.75;5107890;28;20538;-60
2022/01/08 11:55:54;;;;;;;2.38;1.10;;;;;;;20.59;32.85;99413.00;5108612;28;20054;-61
2022/01/08 11:58:23;;;;;;;1.80;1.10;;;;;;;20.60;32.60;99405.47;5105571;28;20391;-61
2022/01/08 12:00:57;;;;;;;1.98;1.20;;;;;;;20.60;33.02;99399.91;5108054;28;20059;-61